createdAt,value
2019-05-18T00:00:03.166Z,24.33
2019-05-18T00:02:32.253Z,24.42
2019-05-18T00:05:01.148Z,24.42
2019-05-18T00:07:30.255Z,24.43
2019-05-18T00:10:00.063Z,24.41
2019-05-18T00:12:29.354Z,24.39
2019-05-18T00:14:57.958Z,24.40
2019-05-18T00:17:27.766Z,24.40
2019-05-18T00:19:56.475Z,24.40
2019-05-18T00:22:24.404Z,24.38
2019-05-18T00:24:53.763Z,24.38
2019-05-18T00:27:24.297Z,24.38
2019-05-18T00:29:53.597Z,24.32
2019-05-18T00:32:23.317Z,24.32
2019-05-18T00:34:51.509Z,24.37
2019-05-18T00:37:19.920Z,24.36
2019-05-18T00:39:48.997Z,24.37
2019-05-18T00:42:19.250Z,24.35
2019-05-18T00:44:48.651Z,24.40
2019-05-18T00:47:17.635Z,24.39
2019-05-18T00:49:47.174Z,24.39
2019-05-18T00:52:15.702Z,24.35
2019-05-18T00:54:45.459Z,24.35
2019-05-18T00:57:15.759Z,24.35
2019-05-18T00:59:46.166Z,24.34
2019-05-18T01:02:17.355Z,24.35
2019-05-18T01:04:47.718Z,24.34
2019-05-18T01:07:17.138Z,24.34
2019-05-18T01:09:47.639Z,24.33
2019-05-18T01:12:20.449Z,24.34
2019-05-18T01:14:49.790Z,24.38
2019-05-18T01:17:19.191Z,24.34
2019-05-18T01:19:48.777Z,24.31
2019-05-18T01:22:18.616Z,24.20
2019-05-18T01:27:26.374Z,24.36
2019-05-18T01:29:56.246Z,24.31
2019-05-18T01:32:25.205Z,24.31
2019-05-18T01:34:54.424Z,24.27
2019-05-18T01:37:24.738Z,24.32
2019-05-18T01:39:54.350Z,24.24
2019-05-18T01:43:33.186Z,24.24
2019-05-18T01:47:13.702Z,24.34
2019-05-18T01:49:42.418Z,24.17
2019-05-18T01:52:12.208Z,24.25
2019-05-18T01:54:41.146Z,24.25
2019-05-18T01:57:10.720Z,23.86
2019-05-18T02:00:26.075Z,24.26
2019-05-18T02:05:08.919Z,24.33
2019-05-18T02:07:38.700Z,24.18
2019-05-18T02:10:08.244Z,24.24
2019-05-18T02:12:38.458Z,24.22
2019-05-18T02:15:08.155Z,24.22
2019-05-18T02:17:38.322Z,24.23
2019-05-18T02:20:07.420Z,24.23
2019-05-18T02:22:37.908Z,24.20
2019-05-18T02:25:07.972Z,24.18
2019-05-18T02:27:37.058Z,24.18
2019-05-18T02:30:07.922Z,24.12
2019-05-18T02:32:38.097Z,24.14
2019-05-18T02:35:08.492Z,24.14
2019-05-18T02:37:37.525Z,24.14
2019-05-18T02:40:06.497Z,24.15
2019-05-18T02:42:36.994Z,24.04
2019-05-18T02:45:06.520Z,24.04
2019-05-18T02:47:36.262Z,24.12
2019-05-18T02:50:06.394Z,24.03
2019-05-18T02:52:36.016Z,24.03
2019-05-18T02:55:05.223Z,24.09
2019-05-18T02:57:34.834Z,23.99
2019-05-18T03:00:03.392Z,24.06
2019-05-18T03:02:33.030Z,24.06
2019-05-18T03:05:01.681Z,24.06
2019-05-18T03:07:30.944Z,24.07
2019-05-18T03:10:00.563Z,23.94
2019-05-18T03:12:30.383Z,24.05
2019-05-18T03:15:00.509Z,24.05
2019-05-18T03:17:30.114Z,24.03
2019-05-18T03:19:58.443Z,24.03
2019-05-18T03:22:28.084Z,24.05
2019-05-18T03:24:58.427Z,24.05
2019-05-18T03:27:29.016Z,23.99
2019-05-18T03:29:58.885Z,24.01
2019-05-18T03:32:28.011Z,23.91
2019-05-18T03:36:51.782Z,24.07
2019-05-18T03:39:21.511Z,24.04
2019-05-18T03:43:23.889Z,24.07
2019-05-18T03:45:54.181Z,23.92
2019-05-18T03:51:42.987Z,24.06
2019-05-18T03:55:23.488Z,24.11
2019-05-18T03:57:53.568Z,24.05
2019-05-18T04:01:09.294Z,24.11
2019-05-18T04:03:39.722Z,24.05
2019-05-18T04:06:08.471Z,24.03
2019-05-18T04:08:37.722Z,24.03
2019-05-18T04:11:05.998Z,24.05
2019-05-18T04:13:34.798Z,24.05
2019-05-18T04:16:03.973Z,24.07
2019-05-18T04:18:32.927Z,24.07
2019-05-18T04:21:07.512Z,24.09
2019-05-18T04:23:35.486Z,24.06
2019-05-18T04:26:05.164Z,24.09
2019-05-18T04:28:35.913Z,24.00
2019-05-18T04:31:05.686Z,24.10
2019-05-18T04:33:34.965Z,24.10
2019-05-18T04:36:03.363Z,24.13
2019-05-18T04:38:33.259Z,24.11
2019-05-18T04:41:03.029Z,23.99
2019-05-18T04:43:32.408Z,23.99
2019-05-18T04:46:01.943Z,24.14
2019-05-18T04:48:31.295Z,24.15
2019-05-18T04:52:10.522Z,24.17
2019-05-18T04:54:39.453Z,24.13
2019-05-18T04:57:08.922Z,24.11
2019-05-18T04:59:38.615Z,24.15
2019-05-18T05:02:06.448Z,24.15
2019-05-18T05:04:34.503Z,24.15
2019-05-18T05:07:02.509Z,24.15
2019-05-18T05:09:30.603Z,24.15
2019-05-18T05:11:58.869Z,24.15
2019-05-18T05:16:23.629Z,23.52
2019-05-18T05:18:51.526Z,24.15
2019-05-18T05:21:20.254Z,24.14
2019-05-18T05:23:48.999Z,24.19
2019-05-18T05:26:17.340Z,24.17
2019-05-18T05:28:46.239Z,24.17
2019-05-18T05:31:14.402Z,24.26
2019-05-18T05:33:42.232Z,24.30
2019-05-18T05:36:11.283Z,24.33
2019-05-18T05:38:38.545Z,24.28
2019-05-18T05:41:06.597Z,24.35
2019-05-18T05:43:34.385Z,24.37
2019-05-18T05:46:02.890Z,24.38
2019-05-18T05:48:32.592Z,24.38
2019-05-18T05:51:01.073Z,24.42
2019-05-18T05:53:29.310Z,24.47
2019-05-18T05:55:59.149Z,24.48
2019-05-18T05:58:28.159Z,24.53
2019-05-18T06:00:57.547Z,24.54
2019-05-18T06:03:25.452Z,24.53
2019-05-18T06:05:53.672Z,24.53
2019-05-18T06:08:21.459Z,24.66
2019-05-18T06:10:49.210Z,24.70
2019-05-18T06:13:17.965Z,24.73
2019-05-18T06:15:45.748Z,24.72
2019-05-18T06:18:13.573Z,24.77
2019-05-18T06:20:50.973Z,24.80
2019-05-18T06:23:11.749Z,24.81
2019-05-18T06:25:41.711Z,24.87
2019-05-18T06:28:11.721Z,24.88
2019-05-18T06:30:40.445Z,24.97
2019-05-18T06:33:08.639Z,24.98
2019-05-18T06:35:37.610Z,25.05
2019-05-18T06:38:06.273Z,25.05
2019-05-18T06:40:34.283Z,25.09
2019-05-18T06:43:02.412Z,25.16
2019-05-18T06:47:03.855Z,25.22
2019-05-18T06:49:32.139Z,25.21
2019-05-18T06:52:00.636Z,25.35
2019-05-18T06:54:28.689Z,25.38
2019-05-18T06:56:58.911Z,25.38
2019-05-18T06:59:26.619Z,25.48
2019-05-18T07:01:54.658Z,25.54
2019-05-18T07:04:22.471Z,25.61
2019-05-18T07:06:50.478Z,25.64
2019-05-18T07:09:18.543Z,25.67
2019-05-18T07:11:46.669Z,25.67
2019-05-18T07:14:25.424Z,25.63
2019-05-18T07:16:45.288Z,25.63
2019-05-18T07:19:13.696Z,25.81
2019-05-18T07:21:41.777Z,25.81
2019-05-18T07:24:10.021Z,25.85
2019-05-18T07:26:38.318Z,25.76
2019-05-18T07:29:07.123Z,25.76
2019-05-18T07:31:35.446Z,25.82
2019-05-18T07:34:03.254Z,25.90
2019-05-18T07:36:31.330Z,25.90
2019-05-18T07:38:59.634Z,25.94
2019-05-18T07:41:27.662Z,25.94
2019-05-18T07:43:55.689Z,25.99
2019-05-18T07:46:23.779Z,25.99
2019-05-18T07:48:51.523Z,25.96
2019-05-18T07:51:19.398Z,26.11
2019-05-18T07:53:47.290Z,26.11
2019-05-18T07:56:14.992Z,26.14
2019-05-18T07:58:43.262Z,26.19
2019-05-18T08:01:11.218Z,26.28
2019-05-18T08:03:39.274Z,26.34
2019-05-18T08:06:07.573Z,26.36
2019-05-18T08:08:35.583Z,26.37
2019-05-18T08:11:03.882Z,26.42
2019-05-18T08:13:32.021Z,26.42
2019-05-18T08:15:59.719Z,26.42
2019-05-18T08:18:27.502Z,26.53
2019-05-18T08:20:55.301Z,26.53
2019-05-18T08:23:23.450Z,26.53
2019-05-18T08:25:52.418Z,26.80
2019-05-18T08:28:20.256Z,26.80
2019-05-18T08:30:48.962Z,26.79
2019-05-18T08:33:17.137Z,26.85
2019-05-18T08:35:45.251Z,26.84
2019-05-18T08:38:12.935Z,26.81
2019-05-18T08:40:41.238Z,26.81
2019-05-18T08:43:09.183Z,26.79
2019-05-18T08:45:37.121Z,26.74
2019-05-18T08:48:05.121Z,26.72
2019-05-18T08:50:32.943Z,26.72
2019-05-18T08:53:00.809Z,26.77
2019-05-18T08:55:28.511Z,26.78
2019-05-18T08:57:56.511Z,26.78
2019-05-18T09:00:24.135Z,26.79
2019-05-18T09:02:54.092Z,26.77
2019-05-18T09:05:22.756Z,26.78
2019-05-18T09:07:51.055Z,26.77
2019-05-18T09:10:18.862Z,26.80
2019-05-18T09:12:46.389Z,26.78
2019-05-18T09:15:17.436Z,26.78
2019-05-18T09:20:27.195Z,26.84
2019-05-18T09:22:54.623Z,26.83
2019-05-18T09:25:23.407Z,26.85
2019-05-18T09:27:50.846Z,26.93
2019-05-18T09:32:24.857Z,27.03
2019-05-18T09:36:27.423Z,27.11
2019-05-18T09:38:55.231Z,27.09
2019-05-18T09:41:22.814Z,27.19
2019-05-18T09:43:55.098Z,27.19
2019-05-18T09:46:23.493Z,27.22
2019-05-18T09:48:51.799Z,27.30
2019-05-18T09:51:19.500Z,27.35
2019-05-18T09:53:51.662Z,27.33
2019-05-18T09:56:16.462Z,27.36
2019-05-18T09:58:44.606Z,27.42
2019-05-18T10:01:13.127Z,27.44
2019-05-18T10:03:41.247Z,27.54
2019-05-18T10:06:09.302Z,27.54
2019-05-18T10:08:36.617Z,27.60
2019-05-18T10:11:05.324Z,27.48
2019-05-18T10:13:33.232Z,27.48
2019-05-18T10:16:00.499Z,27.54
2019-05-18T10:18:28.198Z,27.56
2019-05-18T10:20:55.554Z,27.56
2019-05-18T10:23:23.156Z,27.60
2019-05-18T10:25:50.809Z,27.63
2019-05-18T10:28:18.151Z,27.68
2019-05-18T10:30:45.977Z,27.68
2019-05-18T10:33:13.362Z,27.65
2019-05-18T10:35:41.150Z,27.65
2019-05-18T10:38:09.510Z,27.70
2019-05-18T10:40:36.731Z,27.67
2019-05-18T10:43:03.988Z,27.71
2019-05-18T10:48:14.360Z,27.90
2019-05-18T10:50:43.134Z,27.86
2019-05-18T10:53:10.718Z,27.87
2019-05-18T10:55:38.707Z,27.88
2019-05-18T10:58:06.273Z,27.91
2019-05-18T11:01:24.241Z,28.01
2019-05-18T11:03:51.752Z,27.98
2019-05-18T11:06:20.119Z,28.02
2019-05-18T11:08:47.550Z,28.12
2019-05-18T11:11:16.083Z,28.18
2019-05-18T11:13:43.721Z,28.19
2019-05-18T11:16:11.447Z,28.07
2019-05-18T11:18:38.903Z,28.07
2019-05-18T11:21:06.443Z,28.12
2019-05-18T11:23:43.156Z,28.07
2019-05-18T11:26:03.038Z,28.07
2019-05-18T11:28:30.953Z,28.12
2019-05-18T11:30:58.228Z,28.09
2019-05-18T11:33:25.475Z,28.14
2019-05-18T11:35:52.943Z,28.09
2019-05-18T11:38:20.273Z,28.09
2019-05-18T11:40:47.506Z,28.13
2019-05-18T11:43:15.165Z,28.15
2019-05-18T11:45:43.024Z,28.02
2019-05-18T11:48:10.672Z,28.19
2019-05-18T11:50:38.273Z,28.22
2019-05-18T11:53:05.583Z,28.22
2019-05-18T11:55:32.815Z,28.22
2019-05-18T11:58:00.027Z,28.18
2019-05-18T12:00:27.318Z,28.08
2019-05-18T12:02:54.684Z,28.12
2019-05-18T12:05:22.041Z,28.25
2019-05-18T12:07:49.907Z,28.25
2019-05-18T12:10:18.679Z,28.31
2019-05-18T12:12:46.544Z,28.39
2019-05-18T12:15:14.513Z,28.42
2019-05-18T12:17:41.949Z,28.29
2019-05-18T12:20:09.754Z,28.31
2019-05-18T12:22:37.180Z,28.31
2019-05-18T12:25:04.873Z,28.28
2019-05-18T12:27:32.575Z,28.36
2019-05-18T12:30:00.512Z,28.40
2019-05-18T12:32:28.120Z,28.37
2019-05-18T12:34:55.671Z,28.23
2019-05-18T12:37:22.940Z,28.23
2019-05-18T12:39:51.796Z,28.18
2019-05-18T12:42:19.716Z,28.28
2019-05-18T12:44:46.931Z,28.33
2019-05-18T12:47:14.609Z,28.38
2019-05-18T12:49:42.150Z,28.47
2019-05-18T12:52:09.520Z,28.61
2019-05-18T12:54:46.004Z,28.61
2019-05-18T12:57:07.172Z,28.65
2019-05-18T12:59:34.710Z,28.64
2019-05-18T13:02:02.365Z,28.69
2019-05-18T13:07:11.762Z,28.61
2019-05-18T13:09:39.000Z,28.68
2019-05-18T13:12:06.406Z,28.27
2019-05-18T13:14:33.646Z,28.27
2019-05-18T13:17:00.932Z,28.67
2019-05-18T13:19:28.614Z,28.67
2019-05-18T13:21:56.127Z,28.08
2019-05-18T13:24:23.674Z,28.67
2019-05-18T13:26:51.489Z,28.68
2019-05-18T13:29:19.165Z,28.59
2019-05-18T13:31:46.449Z,28.66
2019-05-18T13:34:13.907Z,28.60
2019-05-18T13:36:42.221Z,28.61
2019-05-18T13:39:09.865Z,28.65
2019-05-18T13:41:37.677Z,28.52
2019-05-18T13:44:05.261Z,28.50
2019-05-18T13:46:33.362Z,28.50
2019-05-18T13:49:01.206Z,28.47
2019-05-18T13:51:28.466Z,28.36
2019-05-18T13:53:55.770Z,28.31
2019-05-18T13:56:23.081Z,28.20
2019-05-18T13:58:51.254Z,27.97
2019-05-18T14:01:19.026Z,27.98
2019-05-18T14:03:46.277Z,27.83
2019-05-18T14:06:13.964Z,27.81
2019-05-18T14:08:41.505Z,27.68
2019-05-18T14:11:09.024Z,27.59
2019-05-18T14:13:36.498Z,27.54
2019-05-18T14:16:03.784Z,27.47
2019-05-18T14:18:34.243Z,27.42
2019-05-18T14:21:01.649Z,27.39
2019-05-18T14:23:29.080Z,27.39
2019-05-18T14:25:56.481Z,27.39
2019-05-18T14:28:23.815Z,27.22
2019-05-18T14:30:51.662Z,27.17
2019-05-18T14:33:18.943Z,27.21
2019-05-18T14:35:46.812Z,27.15
2019-05-18T14:38:14.140Z,27.08
2019-05-18T14:40:41.672Z,27.08
2019-05-18T14:43:09.261Z,27.04
2019-05-18T14:45:36.517Z,27.01
2019-05-18T14:48:03.767Z,26.99
2019-05-18T14:50:32.530Z,26.95
2019-05-18T14:53:00.739Z,26.80
2019-05-18T14:55:33.659Z,26.80
2019-05-18T14:57:57.796Z,26.91
2019-05-18T15:01:14.435Z,26.83
2019-05-18T15:03:42.271Z,26.80
2019-05-18T15:06:09.522Z,26.74
2019-05-18T15:08:36.762Z,26.50
2019-05-18T15:11:04.206Z,26.43
2019-05-18T15:13:31.914Z,26.43
2019-05-18T15:16:00.505Z,26.36
2019-05-18T15:18:28.244Z,26.32
2019-05-18T15:20:55.495Z,26.27
2019-05-18T15:23:23.566Z,26.32
2019-05-18T15:25:51.571Z,26.36
2019-05-18T15:28:19.790Z,26.36
2019-05-18T15:30:47.469Z,26.38
2019-05-18T15:33:15.244Z,26.34
2019-05-18T15:35:43.325Z,26.36
2019-05-18T15:38:10.956Z,26.33
2019-05-18T15:40:38.722Z,26.36
2019-05-18T15:43:06.895Z,26.35
2019-05-18T15:45:34.501Z,26.35
2019-05-18T15:48:02.009Z,26.35
2019-05-18T15:50:29.273Z,26.40
2019-05-18T15:52:57.015Z,26.42
2019-05-18T15:55:24.597Z,26.36
2019-05-18T15:57:52.130Z,26.36
2019-05-18T16:00:21.007Z,26.27
2019-05-18T16:02:48.593Z,26.30
2019-05-18T16:05:16.245Z,26.27
2019-05-18T16:07:44.116Z,26.23
2019-05-18T16:10:13.603Z,26.11
2019-05-18T16:12:41.175Z,26.11
2019-05-18T16:15:08.774Z,26.20
2019-05-18T16:17:39.229Z,26.23
2019-05-18T16:20:06.499Z,26.23
2019-05-18T16:22:33.774Z,26.22
2019-05-18T16:25:01.414Z,26.27
2019-05-18T16:27:29.097Z,26.27
2019-05-18T16:29:58.669Z,26.28
2019-05-18T16:32:25.903Z,26.27
2019-05-18T16:34:53.185Z,26.28
2019-05-18T16:37:20.432Z,26.27
2019-05-18T16:39:48.599Z,26.27
2019-05-18T16:42:15.813Z,26.29
2019-05-18T16:44:43.058Z,26.36
2019-05-18T16:47:10.677Z,26.36
2019-05-18T16:49:38.056Z,26.35
2019-05-18T16:52:05.678Z,26.34
2019-05-18T16:54:32.908Z,26.31
2019-05-18T16:57:00.615Z,26.29
2019-05-18T16:59:27.832Z,26.16
2019-05-18T17:01:55.571Z,26.16
2019-05-18T17:04:22.960Z,26.25
2019-05-18T17:06:50.545Z,26.21
2019-05-18T17:09:18.877Z,26.18
2019-05-18T17:11:48.165Z,26.15
2019-05-18T17:14:15.619Z,26.14
2019-05-18T17:16:42.904Z,26.13
2019-05-18T17:19:10.089Z,26.16
2019-05-18T17:22:18.152Z,26.19
2019-05-18T17:24:45.756Z,26.15
2019-05-18T17:27:13.281Z,26.14
2019-05-18T17:29:40.660Z,26.11
2019-05-18T17:32:08.837Z,26.08
2019-05-18T17:34:36.471Z,26.05
2019-05-18T17:37:03.758Z,26.05
2019-05-18T17:39:33.218Z,25.94
2019-05-18T17:42:00.487Z,25.94
2019-05-18T17:44:27.821Z,26.04
2019-05-18T17:46:55.139Z,25.90
2019-05-18T17:49:27.991Z,25.90
2019-05-18T17:51:51.927Z,26.02
2019-05-18T17:54:19.287Z,26.03
2019-05-18T17:56:46.978Z,26.02
2019-05-18T17:59:14.664Z,25.99
2019-05-18T18:01:42.023Z,25.62
2019-05-18T18:04:09.336Z,25.98
2019-05-18T18:06:36.975Z,25.97
2019-05-18T18:09:06.735Z,25.86
2019-05-18T18:11:34.375Z,25.86
2019-05-18T18:14:02.314Z,25.93
2019-05-18T18:16:29.572Z,25.91
2019-05-18T18:18:57.107Z,25.89
2019-05-18T18:21:24.516Z,25.88
2019-05-18T18:23:54.482Z,25.86
2019-05-18T18:26:20.964Z,25.86
2019-05-18T18:28:48.701Z,25.86
2019-05-18T18:31:16.243Z,25.85
2019-05-18T18:33:43.924Z,25.83
2019-05-18T18:36:11.228Z,25.83
2019-05-18T18:38:38.707Z,25.80
2019-05-18T18:41:06.456Z,25.81
2019-05-18T18:43:34.552Z,25.77
2019-05-18T18:46:02.546Z,25.77
2019-05-18T18:48:29.989Z,25.78
2019-05-18T18:50:57.232Z,25.79
2019-05-18T18:53:25.105Z,25.75
2019-05-18T18:55:52.469Z,25.68
2019-05-18T18:58:19.921Z,25.68
2019-05-18T19:00:48.179Z,25.74
2019-05-18T19:03:15.527Z,25.73
2019-05-18T19:05:42.763Z,25.71
2019-05-18T19:08:11.018Z,25.74
2019-05-18T19:10:38.316Z,25.72
2019-05-18T19:13:05.894Z,25.71
2019-05-18T19:15:33.781Z,25.68
2019-05-18T19:18:01.740Z,25.66
2019-05-18T19:22:53.566Z,25.71
2019-05-18T19:25:21.334Z,25.66
2019-05-18T19:27:55.029Z,25.66
2019-05-18T19:30:19.424Z,25.63
2019-05-18T19:32:47.203Z,25.59
2019-05-18T19:35:15.441Z,25.58
2019-05-18T19:37:42.910Z,25.58
2019-05-18T19:40:11.422Z,25.56
2019-05-18T19:42:39.215Z,25.59
2019-05-18T19:45:06.762Z,25.57
2019-05-18T19:47:34.589Z,25.57
2019-05-18T19:50:01.888Z,25.57
2019-05-18T19:52:29.224Z,25.59
2019-05-18T19:54:56.632Z,25.56
2019-05-18T19:57:24.236Z,25.54
2019-05-18T19:59:51.790Z,25.54
2019-05-18T20:02:19.314Z,25.54
2019-05-18T20:05:05.689Z,25.54
2019-05-18T20:07:16.383Z,25.55
2019-05-18T20:09:43.938Z,25.52
2019-05-18T20:12:11.287Z,25.55
2019-05-18T20:14:38.538Z,25.52
2019-05-18T20:17:05.809Z,24.91
2019-05-18T20:19:39.095Z,25.48
2019-05-18T20:22:02.535Z,25.51
2019-05-18T20:24:30.521Z,25.51
2019-05-18T20:26:58.066Z,25.50
2019-05-18T20:29:25.663Z,25.50
2019-05-18T20:31:53.748Z,25.48
2019-05-18T20:34:21.146Z,25.47
2019-05-18T20:36:48.493Z,25.48
2019-05-18T20:39:16.262Z,25.46
2019-05-18T20:41:43.882Z,25.47
2019-05-18T20:44:11.786Z,24.89
2019-05-18T20:46:39.186Z,24.89
2019-05-18T20:49:06.704Z,25.44
2019-05-18T20:51:34.091Z,25.44
2019-05-18T20:54:01.790Z,25.45
2019-05-18T20:56:29.486Z,25.41
2019-05-18T20:58:56.934Z,25.41
2019-05-18T21:01:24.317Z,25.41
2019-05-18T21:03:52.393Z,25.38
2019-05-18T21:06:20.469Z,25.41
2019-05-18T21:08:48.502Z,25.40
2019-05-18T21:11:15.864Z,25.41
2019-05-18T21:13:43.406Z,25.37
2019-05-18T21:16:11.237Z,25.40
2019-05-18T21:18:38.542Z,25.38
2019-05-18T21:21:06.195Z,25.43
2019-05-18T21:23:33.562Z,25.37
2019-05-18T21:26:01.243Z,25.35
2019-05-18T21:28:29.061Z,25.34
2019-05-18T21:30:57.034Z,25.38
2019-05-18T21:33:24.288Z,25.37
2019-05-18T21:35:51.657Z,25.36
2019-05-18T21:38:18.948Z,25.36
2019-05-18T21:40:46.305Z,25.36
2019-05-18T21:43:13.783Z,25.36
2019-05-18T21:45:41.064Z,25.35
2019-05-18T21:48:10.937Z,25.35
2019-05-18T21:50:38.442Z,25.29
2019-05-18T21:53:05.844Z,25.31
2019-05-18T21:55:33.161Z,25.29
2019-05-18T21:58:00.792Z,25.27
2019-05-18T22:00:30.001Z,25.28
2019-05-18T22:02:57.277Z,25.27
2019-05-18T22:05:24.645Z,25.28
2019-05-18T22:07:51.894Z,25.27
2019-05-18T22:10:25.797Z,25.27
2019-05-18T22:12:49.148Z,25.24
2019-05-18T22:15:16.568Z,25.26
2019-05-18T22:18:02.974Z,25.15
2019-05-18T22:20:30.910Z,25.15
2019-05-18T22:22:58.935Z,25.25
2019-05-18T22:25:28.028Z,25.26
2019-05-18T22:27:55.823Z,25.29
2019-05-18T22:30:23.455Z,25.27
2019-05-18T22:32:50.806Z,25.23
2019-05-18T22:35:18.082Z,25.27
2019-05-18T22:37:47.447Z,25.25
2019-05-18T22:40:14.719Z,25.29
2019-05-18T22:42:42.459Z,25.30
2019-05-18T22:45:09.735Z,25.27
2019-05-18T22:47:38.609Z,25.24
2019-05-18T22:50:06.356Z,25.26
2019-05-18T22:52:33.710Z,25.23
2019-05-18T22:55:01.498Z,25.21
2019-05-18T22:57:29.156Z,25.22
2019-05-18T22:59:57.110Z,25.19
2019-05-18T23:02:24.695Z,25.13
2019-05-18T23:04:52.211Z,25.22
2019-05-18T23:07:20.159Z,25.22
2019-05-18T23:09:47.486Z,25.21
2019-05-18T23:12:15.108Z,25.23
2019-05-18T23:14:42.722Z,25.23
2019-05-18T23:17:09.955Z,25.21
2019-05-18T23:19:39.443Z,25.12
2019-05-18T23:22:07.227Z,25.12
2019-05-18T23:24:34.424Z,25.20
2019-05-18T23:27:01.881Z,25.19
2019-05-18T23:29:29.361Z,25.18
2019-05-18T23:31:56.758Z,25.19
2019-05-18T23:34:24.043Z,25.17
2019-05-18T23:36:51.351Z,25.20
2019-05-18T23:39:18.613Z,25.17
2019-05-18T23:41:46.458Z,25.18
2019-05-18T23:44:13.701Z,25.19
2019-05-18T23:46:40.915Z,25.16
2019-05-18T23:49:10.958Z,25.15
2019-05-18T23:51:37.610Z,25.15
2019-05-18T23:54:05.161Z,25.20
2019-05-18T23:56:32.449Z,25.13
2019-05-18T23:58:59.998Z,25.17
